Time;durP1;ratioP1;P1;durP2;ratioP2;P2;SDS_P1;SDS_P2;PMS_P1;PMS_P2;Temp;Humidity;BMP_temperature;BMP_pressure;BME280_temperature;BME280_humidity;BME280_pressure;Samples;Min_cycle;Max_cycle;Signal;HPM_P1;HPM_P2
2021/12/25 00:00:05;;;;;;;8.93;7.27;;;9.20;99.90;;;;;;4937549;29;20225;-66
2021/12/25 00:02:32;;;;;;;9.87;8.40;;;9.10;99.90;;;;;;4937277;29;20209;-66
2021/12/25 00:04:58;;;;;;;7.77;6.93;;;9.10;99.90;;;;;;4937356;29;20460;-66
2021/12/25 00:07:23;;;;;;;8.50;7.80;;;9.20;99.90;;;;;;4937209;29;20480;-66
2021/12/25 00:09:49;;;;;;;7.13;6.00;;;9.10;99.90;;;;;;4937238;29;20186;-66
2021/12/25 00:12:14;;;;;;;8.90;6.50;;;9.10;99.90;;;;;;4937360;29;20297;-67
2021/12/25 00:14:40;;;;;;;6.10;5.50;;;9.20;99.90;;;;;;4937247;29;20181;-67
2021/12/25 00:17:05;;;;;;;7.63;6.33;;;9.10;99.90;;;;;;4936579;29;20222;-66
2021/12/25 00:19:32;;;;;;;7.23;6.53;;;9.00;99.90;;;;;;4937114;29;20212;-66
2021/12/25 00:21:59;;;;;;;6.47;5.87;;;9.00;99.90;;;;;;4936879;29;20472;-66
2021/12/25 00:24:25;;;;;;;8.30;6.23;;;9.00;99.90;;;;;;4937151;29;20173;-66
2021/12/25 00:26:58;;;;;;;9.27;7.13;;;9.10;99.90;;;;;;4936779;29;20417;-66
2021/12/25 00:32:37;;;;;;;10.03;5.83;;;9.20;99.90;;;;;;4937134;29;20820;-66
2021/12/25 00:34:59;;;;;;;7.27;6.20;;;9.10;99.90;;;;;;4936591;29;20489;-66
2021/12/25 00:37:26;;;;;;;7.03;5.70;;;9.10;99.90;;;;;;4935510;29;20951;-66
2021/12/25 00:39:52;;;;;;;7.50;6.80;;;9.10;99.90;;;;;;4936827;29;20199;-66
2021/12/25 00:42:18;;;;;;;6.73;6.13;;;9.10;99.90;;;;;;4936572;29;20469;-66
2021/12/25 00:44:43;;;;;;;9.87;8.37;;;9.20;99.90;;;;;;4936576;29;20950;-66
2021/12/25 00:47:09;;;;;;;8.97;8.13;;;9.20;99.90;;;;;;4936410;29;20170;-67
2021/12/25 00:49:34;;;;;;;7.80;7.10;;;9.20;99.90;;;;;;4936595;29;20174;-66
2021/12/25 00:52:00;;;;;;;7.43;6.70;;;9.10;99.90;;;;;;4936447;29;20672;-66
2021/12/25 00:54:26;;;;;;;8.60;6.23;;;8.90;99.90;;;;;;4936628;29;20817;-66
2021/12/25 00:56:51;;;;;;;7.30;6.00;;;8.90;99.90;;;;;;4936243;29;20182;-66
2021/12/25 00:59:17;;;;;;;8.63;6.10;;;8.90;99.90;;;;;;4936421;29;20774;-66
2021/12/25 01:01:43;;;;;;;5.80;5.20;;;8.90;99.90;;;;;;4936192;29;20232;-66
2021/12/25 01:04:09;;;;;;;6.60;6.00;;;8.90;99.90;;;;;;4936231;29;20184;-66
2021/12/25 01:06:35;;;;;;;8.73;6.17;;;8.90;99.90;;;;;;4935988;29;20895;-67
2021/12/25 01:09:00;;;;;;;5.63;5.13;;;9.00;99.90;;;;;;4936275;29;20173;-66
2021/12/25 01:11:29;;;;;;;6.43;5.83;;;9.00;99.90;;;;;;4935983;29;20225;-66
2021/12/25 01:14:09;;;;;;;7.07;6.40;;;9.00;99.90;;;;;;4936089;29;20173;-66
2021/12/25 01:17:06;;;;;;;7.63;6.03;;;9.00;99.90;;;;;;4935836;29;20484;-66
2021/12/25 01:19:54;;;;;;;7.47;6.73;;;9.00;99.90;;;;;;4935990;29;20436;-66
2021/12/25 01:25:29;;;;;;;8.57;7.07;;;8.90;99.90;;;;;;4935998;29;20421;-67
2021/12/25 01:28:36;;;;;;;6.83;6.17;;;8.80;99.90;;;;;;4935218;29;20938;-66
2021/12/25 01:49:23;;;;;;;8.70;7.80;;;8.80;99.90;;;;;;4935539;29;20464;-67
2021/12/25 01:51:49;;;;;;;11.00;8.47;;;8.70;99.90;;;;;;4935417;29;20481;-66
2021/12/25 01:54:14;;;;;;;10.30;8.23;;;8.60;99.90;;;;;;4935469;29;20200;-66
2021/12/25 01:56:40;;;;;;;11.00;8.13;;;8.60;99.90;;;;;;4935123;29;20184;-66
2021/12/25 01:59:05;;;;;;;10.63;8.67;;;8.60;99.90;;;;;;4935481;29;20208;-66
2021/12/25 02:01:31;;;;;;;11.00;8.20;;;8.50;99.90;;;;;;4935181;29;20276;-66
2021/12/25 02:03:57;;;;;;;9.60;7.87;;;8.50;99.90;;;;;;4935224;29;20174;-66
2021/12/25 02:06:23;;;;;;;9.73;8.43;;;8.50;99.90;;;;;;4935006;29;20907;-66
2021/12/25 02:08:48;;;;;;;10.10;8.67;;;8.50;99.90;;;;;;4935273;29;20640;-66
2021/12/25 02:11:14;;;;;;;11.00;8.83;;;8.50;99.90;;;;;;4935030;29;20258;-66
2021/12/25 02:13:41;;;;;;;14.57;9.27;;;8.50;99.90;;;;;;4935282;29;20177;-66
2021/12/25 02:16:13;;;;;;;9.17;8.27;;;8.50;99.90;;;;;;4934806;29;20170;-66
2021/12/25 02:21:10;;;;;;;9.47;7.70;;;8.40;99.90;;;;;;4934891;29;20462;-66
2021/12/25 02:23:37;;;;;;;9.87;8.87;;;8.30;99.90;;;;;;4935083;29;20432;-65
2021/12/25 02:26:04;;;;;;;10.23;8.47;;;8.30;99.90;;;;;;4934745;29;20436;-65
2021/12/25 02:28:30;;;;;;;11.30;9.10;;;8.30;99.90;;;;;;4934981;29;20434;-66
2021/12/25 02:31:01;;;;;;;11.17;8.40;;;8.30;99.90;;;;;;4934786;29;20853;-66
2021/12/25 02:33:27;;;;;;;10.27;9.17;;;8.30;99.90;;;;;;4933768;29;20796;-67
2021/12/25 02:35:54;;;;;;;10.23;9.13;;;8.30;99.90;;;;;;4934587;29;20485;-66
2021/12/25 02:38:20;;;;;;;16.80;9.60;;;8.30;99.90;;;;;;4934812;29;20500;-66
2021/12/25 02:40:46;;;;;;;10.37;9.23;;;8.20;99.90;;;;;;4934587;29;20588;-66
2021/12/25 02:43:11;;;;;;;12.90;9.73;;;8.30;99.90;;;;;;4934841;29;20180;-66
2021/12/25 02:45:37;;;;;;;12.50;10.30;;;8.20;99.90;;;;;;4934458;29;20636;-66
2021/12/25 02:48:09;;;;;;;11.17;9.70;;;8.20;99.90;;;;;;4934840;29;20555;-66
2021/12/25 02:50:36;;;;;;;11.90;9.27;;;8.20;99.90;;;;;;4934652;29;20414;-66
2021/12/25 02:53:04;;;;;;;10.50;8.60;;;8.30;99.90;;;;;;4934687;29;20425;-66
2021/12/25 02:55:30;;;;;;;11.03;8.77;;;8.30;99.90;;;;;;4934410;29;20428;-66
2021/12/25 02:57:56;;;;;;;11.47;8.97;;;8.30;99.90;;;;;;4934715;29;20421;-66
2021/12/25 03:00:25;;;;;;;9.80;8.80;;;8.30;99.90;;;;;;4934692;29;20671;-66
2021/12/25 03:02:51;;;;;;;13.40;9.37;;;8.40;99.90;;;;;;4934564;29;20312;-66
2021/12/25 03:05:18;;;;;;;12.73;8.37;;;8.40;99.90;;;;;;4934391;29;20481;-66
2021/12/25 03:07:44;;;;;;;7.90;6.77;;;8.30;99.90;;;;;;4934635;29;21090;-66
2021/12/25 03:10:11;;;;;;;8.87;7.53;;;8.30;99.90;;;;;;4934513;29;20464;-66
2021/12/25 03:13:05;;;;;;;8.60;6.73;;;8.30;99.90;;;;;;4934388;29;20525;-66
2021/12/25 03:15:41;;;;;;;7.87;7.07;;;8.40;99.90;;;;;;4934304;29;20421;-66
2021/12/25 03:18:07;;;;;;;8.67;6.57;;;8.40;99.90;;;;;;4934604;29;20429;-66
2021/12/25 03:20:33;;;;;;;9.70;6.90;;;8.40;99.90;;;;;;4934375;29;20422;-66
2021/12/25 03:22:59;;;;;;;6.20;5.30;;;8.40;99.90;;;;;;4934572;29;20426;-66
2021/12/25 03:25:25;;;;;;;6.67;5.97;;;8.40;99.90;;;;;;4934184;29;20521;-66
2021/12/25 03:27:51;;;;;;;6.37;5.77;;;8.50;99.90;;;;;;4934473;29;20202;-66
2021/12/25 03:30:17;;;;;;;6.80;5.80;;;8.50;99.90;;;;;;4934460;29;20180;-66
2021/12/25 03:32:45;;;;;;;5.73;5.13;;;8.50;99.90;;;;;;4934418;29;20446;-66
2021/12/25 03:35:11;;;;;;;6.50;5.13;;;8.40;99.90;;;;;;4934084;29;20923;-66
2021/12/25 03:37:36;;;;;;;6.10;5.50;;;8.40;99.90;;;;;;4934310;29;20453;-66
2021/12/25 03:40:03;;;;;;;7.77;4.80;;;8.50;99.90;;;;;;4934337;29;20461;-65
2021/12/25 03:42:29;;;;;;;7.00;5.13;;;8.50;99.90;;;;;;4934176;29;20291;-65
2021/12/25 03:44:55;;;;;;;9.10;5.73;;;8.40;99.90;;;;;;4934162;29;20517;-67
2021/12/25 03:47:28;;;;;;;6.47;5.07;;;8.30;99.90;;;;;;4934158;29;20236;-66
2021/12/25 03:58:16;;;;;;;8.27;6.40;;;8.20;99.90;;;;;;4937556;29;20557;-66
2021/12/25 04:00:45;;;;;;;8.07;6.30;;;8.20;99.90;;;;;;4937354;29;20453;-66
2021/12/25 04:03:18;;;;;;;6.90;5.87;;;8.20;99.90;;;;;;4937498;29;20414;-66
2021/12/25 04:05:46;;;;;;;8.43;5.60;;;8.20;99.90;;;;;;4937176;29;20827;-65
2021/12/25 04:08:15;;;;;;;8.20;6.30;;;8.20;99.90;;;;;;4937415;29;20417;-66
2021/12/25 04:10:43;;;;;;;12.87;6.17;;;8.20;99.90;;;;;;4937213;29;20852;-66
2021/12/25 04:13:12;;;;;;;5.60;3.97;;;8.20;99.90;;;;;;4937280;29;20417;-66
2021/12/25 04:15:38;;;;;;;5.30;4.80;;;8.20;99.90;;;;;;4937028;29;20421;-66
2021/12/25 04:18:04;;;;;;;5.10;4.60;;;8.30;99.90;;;;;;4937740;29;20448;-68
2021/12/25 04:20:31;;;;;;;7.73;5.27;;;8.20;99.90;;;;;;4937091;29;20833;-67
2021/12/25 04:23:02;;;;;;;7.30;5.30;;;8.20;99.90;;;;;;4937136;29;20847;-67
2021/12/25 04:25:31;;;;;;;7.70;5.30;;;8.20;99.90;;;;;;4936865;29;20432;-67
2021/12/25 04:28:03;;;;;;;6.43;5.63;;;8.30;99.90;;;;;;4936917;29;20489;-67
2021/12/25 05:05:48;;;;;;;8.20;5.67;;;7.90;99.90;;;;;;4936132;29;20444;-66
2021/12/25 05:08:13;;;;;;;6.40;5.80;;;7.90;99.90;;;;;;4936406;29;20417;-66
2021/12/25 05:10:39;;;;;;;5.97;5.33;;;7.90;99.90;;;;;;4936079;29;20640;-66
2021/12/25 05:13:05;;;;;;;7.37;6.10;;;7.90;99.90;;;;;;4936173;29;20178;-67
2021/12/25 05:15:30;;;;;;;8.00;6.17;;;7.90;99.90;;;;;;4935926;29;20265;-66
2021/12/25 05:17:56;;;;;;;6.67;5.97;;;7.90;99.90;;;;;;4936106;29;20189;-67
2021/12/25 05:20:23;;;;;;;9.63;5.80;;;7.90;99.90;;;;;;4936057;29;20184;-66
2021/12/25 05:22:48;;;;;;;7.13;6.40;;;7.90;99.90;;;;;;4935951;29;20202;-66
2021/12/25 05:25:15;;;;;;;7.93;6.23;;;7.80;99.90;;;;;;4935737;29;20425;-66
2021/12/25 05:27:41;;;;;;;8.40;6.83;;;7.80;99.90;;;;;;4935952;29;20173;-67
2021/12/25 05:30:07;;;;;;;10.07;6.90;;;7.80;99.90;;;;;;4935897;29;20481;-67
2021/12/25 05:32:33;;;;;;;11.17;7.50;;;7.80;99.90;;;;;;4935880;29;20240;-67
2021/12/25 05:34:59;;;;;;;10.70;7.03;;;7.70;99.90;;;;;;4935607;29;20947;-69
2021/12/25 05:37:24;;;;;;;10.10;8.00;;;7.70;99.90;;;;;;4935686;29;20596;-66
2021/12/25 05:39:51;;;;;;;11.30;7.60;;;7.80;99.90;;;;;;4935747;29;20178;-66
2021/12/25 05:42:19;;;;;;;12.20;8.07;;;7.70;99.90;;;;;;4935533;29;20679;-66
2021/12/25 05:44:46;;;;;;;11.27;8.80;;;7.70;99.90;;;;;;4935612;29;20502;-66
2021/12/25 05:47:12;;;;;;;11.27;9.00;;;7.70;99.90;;;;;;4935423;29;20418;-67
2021/12/25 05:49:37;;;;;;;13.37;10.53;;;7.70;99.90;;;;;;4935494;29;20845;-66
2021/12/25 05:52:04;;;;;;;13.23;9.30;;;7.70;99.90;;;;;;4935516;29;20248;-67
2021/12/25 05:54:29;;;;;;;15.83;10.37;;;7.70;99.90;;;;;;4935512;29;20205;-67
2021/12/25 05:56:55;;;;;;;14.50;11.77;;;7.70;99.90;;;;;;4935200;29;20453;-67
2021/12/25 05:59:20;;;;;;;12.90;10.03;;;7.70;99.90;;;;;;4935451;29;20178;-67
2021/12/25 06:01:46;;;;;;;13.60;10.40;;;7.70;99.90;;;;;;4935152;29;20213;-66
2021/12/25 06:04:11;;;;;;;14.73;10.20;;;7.70;99.90;;;;;;4935232;29;20173;-67
2021/12/25 06:06:37;;;;;;;13.53;10.70;;;7.70;99.90;;;;;;4935027;29;20308;-67
2021/12/25 06:09:07;;;;;;;13.83;10.67;;;7.70;99.90;;;;;;4935378;29;20178;-67
2021/12/25 06:11:34;;;;;;;17.13;11.70;;;7.70;99.90;;;;;;4935059;29;20612;-66
2021/12/25 06:14:09;;;;;;;15.77;10.73;;;7.70;99.90;;;;;;4934845;29;20422;-66
2021/12/25 06:16:35;;;;;;;17.60;11.40;;;7.80;99.90;;;;;;4934975;29;20429;-67
2021/12/25 06:19:01;;;;;;;15.87;11.90;;;7.80;99.90;;;;;;4935113;29;20461;-67
2021/12/25 06:21:26;;;;;;;12.97;9.90;;;7.80;99.90;;;;;;4934941;29;20500;-66
2021/12/25 06:23:52;;;;;;;15.23;11.70;;;7.80;99.90;;;;;;4935132;29;20180;-68
2021/12/25 06:26:17;;;;;;;15.17;11.27;;;7.80;99.90;;;;;;4934687;29;20692;-67
2021/12/25 06:28:43;;;;;;;13.13;9.87;;;7.80;99.90;;;;;;4935001;29;20548;-67
2021/12/25 06:31:08;;;;;;;13.20;10.40;;;7.90;99.90;;;;;;4934918;29;20200;-67
2021/12/25 06:33:34;;;;;;;15.13;11.30;;;7.90;99.90;;;;;;4934928;29;20178;-66
2021/12/25 06:35:59;;;;;;;12.20;9.50;;;7.90;99.90;;;;;;4934772;29;20169;-67
2021/12/25 06:38:25;;;;;;;15.10;10.50;;;7.90;99.90;;;;;;4934886;29;20232;-67
2021/12/25 06:40:50;;;;;;;10.90;9.50;;;8.00;99.90;;;;;;4934666;29;20217;-67
2021/12/25 06:43:16;;;;;;;12.33;9.23;;;8.00;99.90;;;;;;4934825;29;20224;-66
2021/12/25 06:45:41;;;;;;;13.40;9.80;;;8.00;99.90;;;;;;4934592;29;20178;-67
2021/12/25 06:48:07;;;;;;;10.63;8.47;;;8.00;99.90;;;;;;4934892;29;20181;-68
2021/12/25 06:50:33;;;;;;;13.23;9.00;;;8.00;99.90;;;;;;4934663;29;20170;-67
2021/12/25 06:52:58;;;;;;;12.50;9.70;;;8.00;99.90;;;;;;4934769;29;20293;-67
2021/12/25 06:55:24;;;;;;;12.70;9.90;;;8.10;99.90;;;;;;4934438;29;20265;-67
2021/12/25 06:57:55;;;;;;;12.53;9.83;;;8.10;99.90;;;;;;4934692;29;20166;-67
2021/12/25 07:00:22;;;;;;;14.37;9.07;;;8.10;99.90;;;;;;4934773;29;20189;-67
2021/12/25 07:02:48;;;;;;;15.03;10.10;;;8.20;99.90;;;;;;4934564;29;20458;-67
2021/12/25 07:05:14;;;;;;;12.33;9.30;;;8.10;99.90;;;;;;4934347;29;20424;-67
2021/12/25 07:07:39;;;;;;;12.00;9.03;;;8.10;99.90;;;;;;4934660;29;20516;-67
2021/12/25 07:10:06;;;;;;;13.17;10.43;;;8.10;99.90;;;;;;4934471;29;20185;-67
2021/12/25 07:12:36;;;;;;;10.47;8.70;;;8.20;99.90;;;;;;4934624;29;20626;-67
2021/12/25 07:15:03;;;;;;;9.60;8.00;;;8.20;99.90;;;;;;4934432;29;20429;-68
2021/12/25 07:17:29;;;;;;;10.60;8.60;;;8.20;99.90;;;;;;4934548;29;20457;-67
2021/12/25 07:19:54;;;;;;;11.33;8.80;;;8.20;99.90;;;;;;4934609;29;20456;-67
2021/12/25 07:22:20;;;;;;;11.03;8.27;;;8.20;99.90;;;;;;4934362;29;20197;-67
2021/12/25 07:24:45;;;;;;;9.77;7.83;;;8.20;99.90;;;;;;4934351;29;20170;-66
2021/12/25 07:27:11;;;;;;;11.10;8.17;;;8.20;99.90;;;;;;4936504;29;20174;-66
2021/12/25 07:29:37;;;;;;;12.10;9.20;;;8.30;99.90;;;;;;4938074;29;20174;-68
2021/12/25 07:32:03;;;;;;;9.90;8.77;;;8.30;99.90;;;;;;4938039;29;20197;-67
2021/12/25 07:34:29;;;;;;;10.67;8.50;;;8.30;99.90;;;;;;4938122;29;20178;-67
2021/12/25 07:36:54;;;;;;;12.37;8.40;;;8.30;99.90;;;;;;4937695;29;20432;-67
2021/12/25 07:39:20;;;;;;;12.93;9.77;;;8.30;99.90;;;;;;4937909;29;20554;-67
2021/12/25 07:41:45;;;;;;;10.27;8.10;;;8.30;99.90;;;;;;4937740;29;20568;-67
2021/12/25 07:44:11;;;;;;;14.43;11.33;;;8.30;99.90;;;;;;4937851;29;20649;-66
2021/12/25 07:46:37;;;;;;;12.20;8.80;;;8.30;99.90;;;;;;4937618;29;20615;-67
2021/12/25 07:49:04;;;;;;;10.00;8.23;;;8.30;99.90;;;;;;4937708;29;20931;-67
2021/12/25 07:51:30;;;;;;;10.23;8.23;;;8.30;99.90;;;;;;4937694;29;20205;-66
2021/12/25 07:53:56;;;;;;;11.73;8.47;;;8.30;99.90;;;;;;4937580;29;20425;-67
2021/12/25 07:56:26;;;;;;;11.13;9.23;;;8.30;99.90;;;;;;4937608;29;20802;-67
2021/12/25 07:58:52;;;;;;;12.73;9.13;;;8.30;99.90;;;;;;4937710;29;20165;-67
2021/12/25 08:01:19;;;;;;;14.17;8.90;;;8.40;99.90;;;;;;4937462;29;20471;-68
2021/12/25 08:03:44;;;;;;;13.43;8.60;;;8.40;99.90;;;;;;4937572;29;20418;-67
2021/12/25 08:06:10;;;;;;;11.13;8.57;;;8.40;99.90;;;;;;4937228;29;20440;-67
2021/12/25 08:08:35;;;;;;;12.90;8.60;;;8.40;99.90;;;;;;4937336;29;20539;-68
2021/12/25 08:11:01;;;;;;;10.80;9.17;;;8.30;99.90;;;;;;4937155;29;20217;-67
2021/12/25 08:13:27;;;;;;;12.33;9.10;;;8.30;99.90;;;;;;4937348;29;20178;-66
2021/12/25 08:15:52;;;;;;;13.60;9.67;;;8.30;99.90;;;;;;4937003;29;20570;-68
2021/12/25 08:18:18;;;;;;;19.13;12.20;;;8.40;99.90;;;;;;4937282;29;20314;-67
2021/12/25 08:20:44;;;;;;;13.20;10.00;;;8.40;99.90;;;;;;4937071;29;20174;-67
2021/12/25 08:23:09;;;;;;;13.63;10.40;;;8.40;99.90;;;;;;4937023;29;20765;-67
2021/12/25 08:25:35;;;;;;;12.30;10.07;;;8.40;99.90;;;;;;4936817;29;20177;-66
2021/12/25 08:28:01;;;;;;;16.73;11.27;;;8.40;99.90;;;;;;4937119;29;20178;-66
2021/12/25 08:30:27;;;;;;;13.90;10.50;;;8.40;99.90;;;;;;4937121;29;20174;-67
2021/12/25 08:32:58;;;;;;;12.77;9.70;;;8.40;99.90;;;;;;4936984;29;20460;-67
2021/12/25 08:35:26;;;;;;;15.87;9.80;;;8.40;99.90;;;;;;4936706;29;20421;-67
2021/12/25 08:37:52;;;;;;;14.20;10.77;;;8.40;99.90;;;;;;4936607;29;20461;-68
2021/12/25 08:40:18;;;;;;;14.60;10.47;;;8.50;99.90;;;;;;4936875;29;21062;-66
2021/12/25 08:42:56;;;;;;;16.20;11.73;;;8.50;99.90;;;;;;4936690;29;20468;-67
2021/12/25 08:48:20;;;;;;;14.00;11.13;;;8.60;99.90;;;;;;4936736;29;20457;-67
2021/12/25 08:50:54;;;;;;;14.23;10.73;;;8.60;99.90;;;;;;4936592;29;20433;-67
2021/12/25 08:53:22;;;;;;;11.27;10.00;;;8.70;99.90;;;;;;4936647;29;20497;-67
2021/12/25 08:55:49;;;;;;;13.33;11.90;;;8.70;99.90;;;;;;4936272;29;20433;-68
2021/12/25 08:58:15;;;;;;;12.80;11.30;;;8.70;99.90;;;;;;4936543;29;20790;-66
2021/12/25 09:00:42;;;;;;;11.63;10.20;;;8.80;99.90;;;;;;4936316;29;20433;-67
2021/12/25 09:03:09;;;;;;;11.53;9.93;;;8.80;99.90;;;;;;4936510;29;20409;-67
2021/12/25 09:05:35;;;;;;;14.37;10.07;;;8.90;99.90;;;;;;4936072;29;20516;-67
2021/12/25 09:08:01;;;;;;;21.63;16.07;;;8.90;99.90;;;;;;4936334;29;20428;-67
2021/12/25 09:10:28;;;;;;;11.57;8.83;;;8.90;99.90;;;;;;4936215;29;20441;-66
2021/12/25 09:12:55;;;;;;;13.30;11.90;;;8.90;99.90;;;;;;4936239;29;20193;-67
2021/12/25 09:15:21;;;;;;;11.50;9.73;;;8.80;99.90;;;;;;4935924;29;20430;-67
2021/12/25 09:17:46;;;;;;;11.10;9.40;;;8.90;99.90;;;;;;4936145;29;20426;-67
2021/12/25 09:20:16;;;;;;;11.73;8.53;;;8.80;99.90;;;;;;4936068;29;20165;-67
2021/12/25 09:22:42;;;;;;;10.87;8.97;;;8.80;99.90;;;;;;4936121;29;20605;-66
2021/12/25 09:25:07;;;;;;;9.90;8.97;;;8.90;99.90;;;;;;4935778;29;20426;-67
2021/12/25 09:27:33;;;;;;;11.90;10.23;;;8.90;99.90;;;;;;4935927;29;20579;-67
2021/12/25 09:29:59;;;;;;;9.57;8.57;;;8.90;99.90;;;;;;4935853;29;20651;-67
2021/12/25 09:32:25;;;;;;;11.73;9.80;;;8.90;99.90;;;;;;4935846;29;20456;-66
2021/12/25 09:34:50;;;;;;;12.80;10.67;;;8.90;99.90;;;;;;4935840;29;20184;-67
2021/12/25 09:37:16;;;;;;;14.10;11.00;;;8.90;99.90;;;;;;4935523;29;20184;-66
2021/12/25 09:39:41;;;;;;;12.73;10.00;;;9.00;99.90;;;;;;4935807;29;20173;-68
2021/12/25 09:42:07;;;;;;;8.73;7.07;;;9.10;99.90;;;;;;4935581;29;20229;-67
2021/12/25 09:44:33;;;;;;;9.80;7.90;;;9.00;99.90;;;;;;4935630;29;20174;-67
2021/12/25 09:46:58;;;;;;;9.90;7.07;;;9.00;99.90;;;;;;4935358;29;20189;-67
2021/12/25 09:49:24;;;;;;;12.10;9.70;;;9.10;99.90;;;;;;4934985;29;20245;-67
2021/12/25 09:51:50;;;;;;;15.10;10.50;;;9.10;99.90;;;;;;4935519;29;20882;-67
2021/12/25 09:54:15;;;;;;;14.43;12.90;;;9.10;99.90;;;;;;4935512;29;20547;-67
2021/12/25 09:56:43;;;;;;;7.93;6.10;;;9.10;99.90;;;;;;4935148;29;20185;-66
2021/12/25 09:59:13;;;;;;;6.83;5.17;;;9.10;99.90;;;;;;4935388;29;20432;-66
2021/12/25 10:01:47;;;;;;;8.20;4.80;;;9.10;99.90;;;;;;4935263;29;20465;-67
2021/12/25 10:04:35;;;;;;;5.13;4.33;;;9.10;99.90;;;;;;4935381;29;20838;-67
2021/12/25 10:07:23;;;;;;;6.83;4.80;;;9.00;99.90;;;;;;4935066;29;20418;-68
2021/12/25 10:10:13;;;;;;;7.23;4.33;;;9.00;99.90;;;;;;4935252;29;20431;-67
2021/12/25 10:12:45;;;;;;;5.57;3.80;;;8.90;99.90;;;;;;4935111;29;20464;-66
2021/12/25 10:15:15;;;;;;;4.93;3.73;;;9.00;99.90;;;;;;4935022;29;20417;-67
2021/12/25 10:17:56;;;;;;;5.13;4.07;;;9.00;99.90;;;;;;4935607;29;20424;-66
2021/12/25 10:20:27;;;;;;;4.30;3.87;;;9.10;99.90;;;;;;4935050;29;20428;-66
2021/12/25 10:23:08;;;;;;;5.30;3.67;;;9.20;99.90;;;;;;4935088;29;20811;-66
2021/12/25 10:25:45;;;;;;;5.77;4.17;;;9.30;99.90;;;;;;4934769;29;20534;-66
2021/12/25 10:28:13;;;;;;;5.30;3.47;;;9.40;99.90;;;;;;4935018;29;20817;-66
2021/12/25 10:30:53;;;;;;;3.87;2.97;;;9.50;99.90;;;;;;4934982;29;20927;-66
2021/12/25 10:33:51;;;;;;;3.00;2.50;;;9.50;99.90;;;;;;4935018;29;20780;-66
2021/12/25 10:36:30;;;;;;;3.00;2.73;;;9.60;99.90;;;;;;4934409;29;21018;-66
2021/12/25 10:39:11;;;;;;;3.67;2.00;;;9.50;99.90;;;;;;4934907;29;20424;-66
2021/12/25 10:41:40;;;;;;;4.17;3.57;;;9.60;99.90;;;;;;4934742;29;20481;-66
2021/12/25 10:44:13;;;;;;;9.90;6.73;;;9.70;99.90;;;;;;4934886;29;20433;-66
2021/12/25 10:46:54;;;;;;;6.00;5.40;;;9.90;99.90;;;;;;4934609;29;20460;-67
2021/12/25 10:49:21;;;;;;;3.23;2.93;;;10.60;99.90;;;;;;4934722;29;20418;-67
2021/12/25 10:51:47;;;;;;;2.37;1.87;;;11.80;99.90;;;;;;4934698;29;20484;-67
2021/12/25 10:54:15;;;;;;;2.30;2.10;;;12.40;99.90;;;;;;4934769;29;20425;-67
2021/12/25 10:56:45;;;;;;;3.33;2.07;;;12.20;99.90;;;;;;4934433;29;20819;-67
2021/12/25 10:59:14;;;;;;;3.63;1.90;;;12.20;99.90;;;;;;4934782;29;20422;-67
2021/12/25 11:01:47;;;;;;;3.80;2.07;;;12.70;99.90;;;;;;4937822;29;20471;-67
2021/12/25 11:04:44;;;;;;;2.40;2.20;;;14.10;99.90;;;;;;4938590;29;20429;-67
2021/12/25 11:07:15;;;;;;;2.03;1.87;;;16.50;99.90;;;;;;4936982;29;20430;-67
2021/12/25 11:09:41;;;;;;;3.17;1.47;;;17.60;99.90;;;;;;4938451;29;20443;-67
2021/12/25 11:12:22;;;;;;;3.33;2.20;;;16.60;99.90;;;;;;4938302;29;20449;-67
2021/12/25 11:14:48;;;;;;;2.27;2.07;;;15.50;99.90;;;;;;4937930;29;20309;-67
2021/12/25 11:17:26;;;;;;;2.50;2.30;;;14.90;99.90;;;;;;4938147;29;20967;-67
2021/12/25 11:20:00;;;;;;;2.27;1.70;;;14.10;99.90;;;;;;4938251;29;20417;-67
2021/12/25 11:22:52;;;;;;;1.70;1.60;;;14.20;99.90;;;;;;4938145;29;20476;-66
2021/12/25 11:25:21;;;;;;;1.90;1.80;;;13.90;99.90;;;;;;4937988;29;20512;-67
2021/12/25 11:27:49;;;;;;;1.77;1.33;;;13.40;99.90;;;;;;4938154;29;20433;-66
2021/12/25 11:30:18;;;;;;;2.00;1.80;;;12.90;99.90;;;;;;4938045;29;20421;-66
2021/12/25 11:32:44;;;;;;;2.80;1.70;;;12.50;99.90;;;;;;4937981;29;20453;-66
2021/12/25 11:35:11;;;;;;;1.50;1.40;;;12.30;99.90;;;;;;4937779;29;20529;-66
2021/12/25 11:37:37;;;;;;;1.70;1.60;;;12.20;99.90;;;;;;4937965;29;20854;-66
2021/12/25 11:40:03;;;;;;;2.40;2.20;;;12.20;99.90;;;;;;4937967;29;20444;-66
2021/12/25 11:42:29;;;;;;;4.20;2.80;;;12.10;99.90;;;;;;4937848;29;20826;-66
2021/12/25 11:44:56;;;;;;;2.80;2.33;;;12.00;99.90;;;;;;4937747;29;20855;-66
2021/12/25 11:47:39;;;;;;;2.00;1.70;;;11.90;99.90;;;;;;4937633;29;20808;-66
2021/12/25 11:50:24;;;;;;;2.07;1.87;;;11.50;99.90;;;;;;4937682;29;20417;-66
2021/12/25 11:53:24;;;;;;;1.77;1.50;;;11.10;99.90;;;;;;4937733;29;20448;-66
2021/12/25 11:56:26;;;;;;;1.83;1.30;;;11.00;99.90;;;;;;4937400;29;20763;-66
2021/12/25 11:58:54;;;;;;;2.50;2.17;;;11.00;99.90;;;;;;4937611;29;20927;-66
2021/12/25 12:01:22;;;;;;;1.63;1.40;;;11.10;99.90;;;;;;4937453;29;20461;-66
2021/12/25 12:03:57;;;;;;;2.10;1.90;;;11.10;99.90;;;;;;4937435;29;20452;-66
2021/12/25 12:06:47;;;;;;;2.43;2.07;;;11.20;99.90;;;;;;4937199;29;20417;-66
2021/12/25 12:09:19;;;;;;;1.43;1.33;;;11.30;99.90;;;;;;4937500;29;20424;-66
2021/12/25 12:12:07;;;;;;;1.80;1.70;;;11.30;99.90;;;;;;4936615;29;20594;-66
2021/12/25 12:14:33;;;;;;;3.93;1.30;;;11.30;99.90;;;;;;4951590;29;20461;-66
2021/12/25 12:17:15;;;;;;;3.03;1.80;;;11.40;99.90;;;;;;4936996;29;20417;-66
2021/12/25 12:19:43;;;;;;;2.37;2.27;;;11.50;99.90;;;;;;4937268;29;20639;-66
2021/12/25 12:22:50;;;;;;;3.23;2.93;;;11.50;99.90;;;;;;4936966;29;20497;-66
2021/12/25 12:27:41;;;;;;;2.10;1.97;;;11.60;99.90;;;;;;4937236;29;20418;-66
2021/12/25 12:30:33;;;;;;;2.00;1.70;;;11.60;99.90;;;;;;4937120;29;21006;-66
2021/12/25 12:33:23;;;;;;;2.10;1.60;;;11.50;99.90;;;;;;4936994;29;20421;-66
2021/12/25 12:35:50;;;;;;;2.90;1.60;;;11.40;99.90;;;;;;4936565;29;20444;-66
2021/12/25 12:38:47;;;;;;;1.87;1.43;;;11.10;99.90;;;;;;4936938;29;20457;-66
2021/12/25 12:41:16;;;;;;;2.60;1.80;;;11.10;99.90;;;;;;4936729;29;20461;-66
2021/12/25 12:43:58;;;;;;;1.90;1.37;;;11.10;99.90;;;;;;4936842;29;20884;-66
2021/12/25 12:46:45;;;;;;;2.10;1.87;;;11.10;99.90;;;;;;4936510;29;20422;-66
2021/12/25 12:49:10;;;;;;;2.70;1.90;;;11.00;99.90;;;;;;4936705;29;20906;-66
2021/12/25 12:51:36;;;;;;;2.87;2.67;;;11.10;99.90;;;;;;4936525;29;20496;-66
2021/12/25 12:54:02;;;;;;;3.10;2.90;;;11.20;99.90;;;;;;4936675;29;20232;-66
2021/12/25 12:56:28;;;;;;;2.37;2.17;;;11.20;99.90;;;;;;4936358;29;20181;-66
2021/12/25 12:58:56;;;;;;;3.00;2.63;;;11.10;99.90;;;;;;4936656;29;20444;-66
2021/12/25 13:01:23;;;;;;;3.77;3.47;;;11.10;99.90;;;;;;4936506;29;20467;-66
2021/12/25 13:03:55;;;;;;;5.83;5.33;;;11.10;99.90;;;;;;4936328;29;20827;-66
2021/12/25 13:06:21;;;;;;;2.53;2.33;;;11.10;99.90;;;;;;4936173;29;20418;-66
2021/12/25 13:08:48;;;;;;;2.40;2.20;;;11.10;99.90;;;;;;4936428;29;20508;-66
2021/12/25 13:11:26;;;;;;;3.30;3.00;;;11.10;99.90;;;;;;4936135;29;20272;-66
2021/12/25 13:13:55;;;;;;;2.20;2.00;;;11.10;99.90;;;;;;4936328;29;20456;-66
2021/12/25 13:16:24;;;;;;;2.60;2.33;;;11.10;99.90;;;;;;4935863;29;20453;-66
2021/12/25 13:18:53;;;;;;;2.90;2.23;;;11.00;99.90;;;;;;4936245;29;20430;-68
2021/12/25 13:21:24;;;;;;;3.13;2.50;;;10.90;99.90;;;;;;4936028;29;20473;-66
2021/12/25 13:23:57;;;;;;;2.80;2.60;;;10.80;99.90;;;;;;4935312;29;20422;-66
2021/12/25 13:26:34;;;;;;;2.43;2.23;;;10.90;99.90;;;;;;4934760;29;20429;-66
2021/12/25 13:29:06;;;;;;;3.00;2.80;;;11.00;99.90;;;;;;4936104;29;20420;-66
2021/12/25 13:31:34;;;;;;;3.87;3.47;;;11.00;99.90;;;;;;4935972;29;20828;-66
2021/12/25 13:34:03;;;;;;;2.53;2.20;;;11.10;99.90;;;;;;4936112;29;20429;-66
2021/12/25 13:36:33;;;;;;;6.93;5.23;;;11.20;99.90;;;;;;4935663;29;20936;-66
2021/12/25 13:39:14;;;;;;;3.97;3.23;;;11.10;99.90;;;;;;4935942;29;20425;-66
2021/12/25 13:41:46;;;;;;;4.40;3.80;;;11.00;99.90;;;;;;4935629;29;20815;-66
2021/12/25 13:44:16;;;;;;;4.30;3.53;;;11.10;99.90;;;;;;4935788;29;20425;-66
2021/12/25 13:46:44;;;;;;;6.43;5.20;;;11.00;99.90;;;;;;4935491;29;20895;-66
2021/12/25 13:49:34;;;;;;;4.70;3.70;;;11.00;99.90;;;;;;4935622;29;20920;-66
2021/12/25 13:52:21;;;;;;;5.10;4.10;;;11.00;99.90;;;;;;4935545;29;20818;-66
2021/12/25 13:54:48;;;;;;;4.37;3.97;;;10.90;99.90;;;;;;4935655;29;20414;-66
2021/12/25 13:57:15;;;;;;;6.70;6.00;;;10.90;99.90;;;;;;4935115;29;20429;-66
2021/12/25 13:59:42;;;;;;;3.77;3.17;;;10.90;99.90;;;;;;4935312;29;20429;-66
2021/12/25 14:02:13;;;;;;;4.80;3.90;;;10.90;99.90;;;;;;4935251;29;20948;-66
2021/12/25 14:04:40;;;;;;;4.10;3.43;;;10.80;99.90;;;;;;4935370;29;20549;-66
2021/12/25 14:07:07;;;;;;;5.37;4.57;;;10.70;99.90;;;;;;4935094;29;21131;-66
2021/12/25 14:09:33;;;;;;;4.00;3.60;;;10.70;99.90;;;;;;4935324;29;20420;-66
2021/12/25 14:12:00;;;;;;;4.20;3.80;;;10.70;99.90;;;;;;4935033;29;20473;-66
2021/12/25 14:14:28;;;;;;;6.27;5.67;;;10.70;99.90;;;;;;4934850;29;20467;-66